Miles Wright

Chefscout - Orlando City
24 Feb 2029
Samstag
Verarbeitung

Persönlichkeit

Anpassungsfähigkeit (3) Ehrgeiz (17) Kontroverse (6) Loyalität (9) Druck (10) Professionalität (14) Fairness (9) Temperament (4)

Profil

Trainerstil Demokratisch
Lizenz Nationale A
Entschlossenheit 9
Menschenführung 7
Motivation 11
Disziplin 8
Arbeitszufriedenheit
100%
Ermüdung
0%
Rolle Chefscout
Gehalt 90.6K p/W
Vertrag 14.03.2029

Leistung

Verhalten Gut
Trainingseffektivität
44%
Spielerentwicklung
30%
Verletzungsprävention
45%
Taktische Umsetzung
40%

Letzte Ereignisse

Empfahl ein Transferziel jetzt
Empfahl ein Transferziel jetzt
Empfahl ein Transferziel jetzt
Empfahl ein Transferziel jetzt
Empfahl ein Transferziel jetzt
Empfahl ein Transferziel jetzt
Vertragsverhandlung begonnen jetzt
Vertragsverhandlung begonnen jetzt

Aktuell beobachtet

217
Spieler Verein Status Fähigkeit Vertrauen Beobachtet Zuletzt beobachtet Letzte Stimme
Luka Vušković Tottenham Aktiv 149 / 160 40% 2 15.02.2029 -
Chris Rigg West Ham United Aktiv 138 / 144 40% 16 15.02.2029 -
Trey Nyoni Atlético Madrid Aktiv 143 / 148 40% 2 15.02.2029 -
Matías Satas Grimsby Town Aktiv 106 / 117 40% 2 13.02.2029 -
Vitaly Bondarev Ural Aktiv 107 / 113 40% 1 13.02.2029 -
Vasilije Novičić IMT Aktiv 104 / 124 40% 1 13.02.2029 -
Jack Shorrock Port Vale Aktiv 106 / 114 40% 2 12.02.2029 -
Miguel Figueiredo Benfica Aktiv 124 / 131 40% 3 10.02.2029 -
Peyton Miller New England Revolution Aktiv 118 / 124 40% 8 10.02.2029 -
Daniel Banjaqui Benfica Aktiv 132 / 131 40% 6 09.02.2029 -
Sebastian Rodriguez Houston Dynamo Aktiv 121 / 131 40% 11 09.02.2029 -
José Neto Benfica Aktiv 126 / 134 40% 1 09.02.2029 -
Diego León Rotherham United Aktiv 125 / 128 40% 8 07.02.2029 -
Olivier Leroux Mouscron Aktiv 104 / 115 40% 1 07.02.2029 -
Calvin Diakite Chesterfield Aktiv 92 / 102 40% 7 06.02.2029 -
Riquelme Thompson-Jones Accrington Stanley Aktiv 115 / 125 40% 6 09.01.2029 -
Ayyoub Bouaddi Stoke City Aktiv 156 / 161 40% 14 09.01.2029 -
Louis Page Leicester City Aktiv 137 / 137 40% 6 09.01.2029 -
Harrison Armstrong Ipswich Town Aktiv 143 / 142 40% 11 05.01.2029 -
Rhys Chadwick Blackpool Aktiv 104 / 120 40% 5 03.01.2029 -
Mateo Faure BATE Aktiv 84 / 95 40% 5 02.01.2029 -
Christos Mouzakitis Hull City Aktiv 143 / 148 40% 5 13.12.2028 -
Abubakar Adams Aduana Stars Aktiv 94 / 86 40% 7 11.12.2028 -
Veljko Milosavljević Bournemouth Aktiv 149 / 152 40% 5 11.12.2028 -
Estanislao López Colón Aktiv 98 / 102 40% 4 09.12.2028 -
Aidan Borland Espanyol Aktiv 112 / 123 40% 1 09.12.2028 -
Celías Ingenthron Platense Aktiv 116 / 127 40% 8 07.12.2028 -
Joel Ezra Enyimba Aktiv 97 / 100 40% 9 06.12.2028 -
Francisco Machis Llaneros Aktiv 92 / 97 40% 9 01.12.2028 -
Máximo Munarriz San Telmo Aktiv 95 / 108 40% 7 30.11.2028 -
Jan Cedilnik Chikhura Aktiv 82 / 89 40% 4 29.11.2028 -
Josh King Newcastle United Aktiv 146 / 158 40% 4 25.11.2028 -
Gideon Manaseh Ikorodu City Aktiv 101 / 109 40% 9 18.11.2028 -
Giovanni Leoni Lincoln City Aktiv 143 / 152 40% 11 18.11.2028 -
Ronan Kpakio AC Milan Aktiv 128 / 131 40% 4 18.11.2028 -
Aytor Herrera Mineros de Guayana Aktiv 94 / 90 40% 7 12.11.2028 -
Óscar Hinojosa Metropolitanos Aktiv 90 / 87 40% 3 10.11.2028 -
Ezra Mayers West Ham United Aktiv 131 / 133 40% 5 25.10.2028 -
Onyeuche Ujunwa Ikorodu City Aktiv 92 / 98 40% 4 23.10.2028 -
Joachim Kayi Sanda Southampton Aktiv 128 / 133 40% 1 23.10.2028 -
Tobías Ramírez River Plate Aktiv 127 / 124 40% 7 21.10.2028 -
Jim Thwaites Manchester United Aktiv 117 / 124 40% 2 19.10.2028 -
Moses Sesay Southampton Aktiv 116 / 122 40% 2 17.10.2028 -
Lautaro Dufur Juventud Aktiv 109 / 110 40% 3 10.10.2028 -
Felipe Varela Trujillanos Aktiv 94 / 101 40% 5 28.09.2028 -
Nazif Abdullahi Nasarawa United Aktiv 76 / 82 40% 1 26.09.2028 -
Lucas Camejo River Plate Aktiv 80 / 95 40% 6 21.09.2028 -
Anderson Acevedo Bogota Aktiv 85 / 100 40% 1 16.09.2028 -
Bade Aluko Leicester City Aktiv 127 / 128 40% 1 07.09.2028 -
Thijs Kraaijeveld USM Alger Aktiv 123 / 120 40% 1 30.08.2028 -
Kwesi Sorotu Badori Berekum Chelsea Aktiv 99 / 102 40% 2 29.08.2028 -
Simone Suppa Virtus Verona Aktiv 87 / 94 40% 1 20.08.2028 -
Ayden Heaven Portsmouth Aktiv 150 / 151 40% 3 17.08.2028 -
Nicolò Moranduzzo Renate Aktiv 100 / 101 40% 1 11.08.2028 -
Kamaldeen Atiemo Wa All Stars Aktiv 103 / 103 40% 2 09.08.2028 -
Hosea Michael Remo Stars Aktiv 93 / 89 40% 2 09.08.2028 -
Martim Cunha Porto Aktiv 116 / 113 40% 3 31.07.2028 -
Ahmed Zaki Masr El Makasa Aktiv 77 / 88 40% 1 31.07.2028 -
Jan Bürger Northampton Town Aktiv 126 / 127 40% 3 17.07.2028 -
Dmytro Strilchuk Podillia Aktiv 90 / 93 40% 1 06.07.2028 -
Amine Boukamir Charleroi Aktiv 112 / 118 40% 1 05.07.2028 -
Emil Ceïde Bodo/Glimt Aktiv 123 / 124 66% 1 14.02.2028 Befürworten
Mateusz Kochalski Red Bull Salzburg Aktiv 130 / 130 66% 1 14.02.2028 Befürworten
Alexandru Stanciu Braga Aktiv 138 / 138 66% 1 14.02.2028 Befürworten
Ben Broggio Mansfield Town Aktiv 109 / 118 40% 2 13.02.2028 -
Josh Nichols Oldham Athletic Aktiv 123 / 128 40% 4 12.02.2028 -
Amin Nabizada Exeter City Aktiv 106 / 120 40% 1 12.02.2028 -
Romelle Donovan Brentford Aktiv 131 / 135 40% 3 10.02.2028 -
Leo Pecover Swindon Town Aktiv 96 / 102 40% 1 10.02.2028 -
Siyabonga Mabena Bidvest Wits Aktiv 117 / 122 40% 4 09.02.2028 -
Nana Nuhu WAFA Aktiv 101 / 108 40% 2 09.02.2028 -
Ryan McAidoo Oldham Athletic Aktiv 124 / 137 40% 1 07.02.2028 -
Ruben Ramos LA Galaxy Aktiv 101 / 101 40% 1 04.02.2028 -
Omar Khedr Gillingham Aktiv 108 / 112 40% 1 04.02.2028 -
Sindre Walle Egeli Udinese Aktiv 142 / 137 40% 3 03.02.2028 -
Lwanda Mbanjwa Platinum Stars Aktiv 106 / 108 40% 1 03.02.2028 -
Esquerdinha Notts County Aktiv 121 / 131 40% 5 31.01.2028 -
Rio Ngumoha Plymouth Argyle Aktiv 142 / 149 40% 2 31.01.2028 -
Luca Williams-Barnett Walsall Aktiv 118 / 137 40% 3 28.01.2028 -
Shea Lacey Crystal Palace Aktiv 131 / 138 40% 1 26.01.2028 -
Alex Verón Vélez Aktiv 121 / 130 40% 3 25.01.2028 -
Pedro Baltika Aktiv 147 / 130 40% 1 25.01.2028 -
Matías Arias Vélez Aktiv 113 / 124 40% 1 25.01.2028 -
Bazoumana Touré Newcastle United Aktiv 147 / 155 40% 3 21.01.2028 -
Oscar Schwartau Norwich City Aktiv 126 / 130 40% 2 17.01.2028 -
Mateus Mané Burnley Aktiv 138 / 146 40% 2 08.01.2028 -
Jeremías Merlo Gimnasia La Plata Aktiv 128 / 127 40% 1 08.01.2028 -
Gabe Forsyth Colchester United Aktiv 109 / 121 40% 1 06.01.2028 -
Valentino Acuña Newell's Old Boys Aktiv 117 / 123 40% 1 06.01.2028 -
Seb Ferdinand Rotherham United Aktiv 113 / 118 40% 1 02.01.2028 -
Matias Siltanen Malmo FF Aktiv 126 / 121 40% 6 25.12.2027 -
Daniel Idoko Ikorodu City Aktiv 99 / 84 40% 2 24.12.2027 -
Caleb Yirenkyi Coventry City Aktiv 136 / 147 40% 1 24.12.2027 -
Victor Hernandez Santa Fe Aktiv 114 / 129 40% 3 23.12.2027 -
Olaniyi Saheed Kwara United Aktiv 95 / 93 40% 1 23.12.2027 -
David Damboama El-Kanemi Warriors Aktiv 84 / 91 40% 4 22.12.2027 -
Lucas Bergvall Tottenham Aktiv 153 / 162 40% 2 22.12.2027 -
Charlie Gray Fleetwood Town Aktiv 95 / 108 40% 1 22.12.2027 -
Archie Gray Southampton Aktiv 150 / 152 40% 2 19.12.2027 -
Zane Albarus Shrewsbury Town Aktiv 104 / 106 40% 2 13.12.2027 -
Antonio Galeano Remo Stars Aktiv 120 / 116 40% 7 08.12.2027 -
Liel Abada Inter Miami CF Aktiv 135 / 144 40% 3 08.12.2027 -
Manuel Mónaco Sarmiento Aktiv 114 / 123 40% 4 05.12.2027 -
Santiago Montiel Independiente Aktiv 126 / 120 40% 2 05.12.2027 -
Talles Magno New York City Aktiv 135 / 126 40% 9 02.12.2027 -
Alexis Cuello San Lorenzo Aktiv 129 / 117 40% 1 30.11.2027 -
Aarón Molinas Defensa y Justicia Aktiv 133 / 116 40% 1 30.11.2027 -
Antony Portland Timbers Aktiv 131 / 132 40% 4 25.11.2027 -
Facundo Mura Inter Miami CF Aktiv 128 / 132 40% 4 25.11.2027 -
Brian Farioli Estudiantes Aktiv 112 / 116 40% 5 25.11.2027 -
Ben Gannon Doak Charlton Athletic Aktiv 150 / 148 40% 3 23.11.2027 -
Quinn Sullivan Philadelphia Union Aktiv 126 / 119 40% 4 21.11.2027 -
David Da Costa Portland Timbers Aktiv 129 / 129 40% 5 15.11.2027 -
Alex Luna Instituto Aktiv 131 / 131 40% 1 14.11.2027 -
Cheikh Sabaly Vancouver Whitecaps Aktiv 127 / 128 40% 4 11.11.2027 -
Adrian Skogmar Malmo FF Aktiv 105 / 122 40% 1 10.11.2027 -
Telasco Segovia Inter Miami CF Aktiv 138 / 129 40% 6 09.11.2027 -
Imran Oulad Omar Dinamo Batumi Aktiv 122 / 132 40% 4 07.11.2027 -
Jesus Ferreira Seattle Sounders Aktiv 130 / 132 40% 4 02.11.2027 -
Somtochuwku Ezenabo Kwara United Aktiv 92 / 87 40% 1 27.10.2027 -
Rhys Walters Port Vale Aktiv 107 / 120 40% 1 26.10.2027 -
Rodrigo González Mitre Aktiv 117 / 126 40% 3 22.10.2027 -
Bénie Traoré New York City Aktiv 123 / 121 40% 3 14.10.2027 -
Juan Bisanz Huracán Aktiv 138 / 136 40% 4 13.10.2027 -
José Barreto Quilmes Aktiv 125 / 114 40% 1 12.10.2027 -
Alejo Cruz Juventud Aktiv 114 / 130 40% 1 09.10.2027 -
Issa Yusuf Shooting Stars Aktiv 86 / 88 40% 1 09.10.2027 -
Ivan Borges Defensores Aktiv 74 / 78 40% 1 09.10.2027 -
Franco Vedoya Central Norte Aktiv 120 / 125 40% 2 05.10.2027 -
Giorgi Arabidze Torpedo Kutaisi Aktiv 110 / 119 40% 1 02.10.2027 -
Morgan Guilavogui Real Salt Lake Aktiv 126 / 127 40% 1 29.09.2027 -
Anders Dreyer San Diego Football Club Aktiv 135 / 127 40% 2 25.09.2027 -
Patricio Moyano Defensores Aktiv 129 / 117 40% 2 18.09.2027 -
Bruno Leyes Godoy Cruz Aktiv 135 / 125 40% 1 16.09.2027 -
Jonás Luna Wanderers Aktiv 116 / 128 40% 1 14.09.2027 -
Godwin Oham Warri Wolves Aktiv 85 / 83 40% 1 14.09.2027 -
Santiago Rodríguez Columbus Crew Aktiv 136 / 132 40% 2 12.09.2027 -
Martín Campos Ferro Carril Oeste Aktiv 114 / 127 40% 1 12.09.2027 -
Zane Monlouis Toronto FC Aktiv 96 / 107 76% 1 19.07.2027 Befürworten
Johannes Eggestein Orlando City Aktiv 125 / 125 68% 1 08.07.2027 Befürworten
Oleh Ocheretko FC Dallas Aktiv 129 / 131 67% 1 08.07.2027 Befürworten
Alex Scott Bournemouth Aktiv 147 / 145 40% 1 16.02.2027 -
Callum Hudson-Odoi Nottingham Forest Aktiv 151 / 154 40% 1 16.02.2027 -
Harry Clarke Preston Aktiv 132 / 126 40% 1 16.02.2027 -
Joe Gelhardt Hull City Aktiv 132 / 137 40% 2 13.02.2027 -
Tomáš Rigo Stoke City Aktiv 137 / 126 40% 1 12.02.2027 -
Mohamed-Ali Cho Hull City Aktiv 141 / 129 40% 1 12.02.2027 -
Chemsdine Talbi Sunderland Aktiv 148 / 148 40% 1 12.02.2027 -
Amine Adli Bournemouth Aktiv 139 / 143 40% 2 11.02.2027 -
Matt O'Riley Brighton Aktiv 139 / 147 40% 1 11.02.2027 -
David Ozoh Derby County Aktiv 117 / 131 40% 1 11.02.2027 -
Bongani Zungu Ajax Cape Town Aktiv 123 / 121 40% 3 09.02.2027 -
Jacob Greaves Ipswich Town Aktiv 137 / 131 40% 1 09.02.2027 -
Juanlu Bournemouth Aktiv 150 / 144 40% 1 09.02.2027 -
Amin Sarr Hellas Verona Aktiv 126 / 126 40% 2 06.02.2027 -
Nicolò Zaniolo Udinese Aktiv 147 / 138 40% 2 06.02.2027 -
Kirill Glebov CSKA Moscow Aktiv 120 / 140 40% 4 05.02.2027 -
Ilyas Ansah Hull City Aktiv 127 / 137 40% 1 05.02.2027 -
Danilo Veiga Lecce Aktiv 119 / 121 40% 1 05.02.2027 -
Maicon Levski Aktiv 123 / 117 40% 1 05.02.2027 -
Pedro Henrique Shakhtar Aktiv 144 / 129 40% 1 04.02.2027 -
Billy Gilmour Napoli Aktiv 152 / 150 40% 1 01.02.2027 -
Odilon Kossounou Atalanta Aktiv 146 / 147 40% 1 31.01.2027 -
Tommaso Pobega Bologna Aktiv 142 / 132 40% 1 31.01.2027 -
Sergey Pinyaev Lokomotiv Moscow Aktiv 121 / 138 40% 2 28.01.2027 -
Marquinhos Spartak Moscow Aktiv 131 / 134 40% 10 28.01.2027 -
Raoul Bellanova Atalanta Aktiv 151 / 155 40% 3 28.01.2027 -
Nazar Voloshyn Dynamo Kyiv Aktiv 124 / 120 40% 1 23.01.2027 -
Álex Centelles Levski Aktiv 131 / 120 40% 1 22.01.2027 -
Alessio Zerbin Frosinone Aktiv 138 / 134 40% 2 21.01.2027 -
Marcelo Allende Mamelodi Sundowns Aktiv 140 / 126 40% 4 20.01.2027 -
Giacomo Raspadori Atalanta Aktiv 144 / 152 40% 1 20.01.2027 -
Petar Stanić Ludogorets Aktiv 147 / 123 40% 12 19.01.2027 -
Martin Baturina Como Aktiv 138 / 134 40% 1 15.01.2027 -
Esequiel Barco Spartak Moscow Aktiv 133 / 143 40% 2 09.01.2027 -
Reda Khadra Qarabag Aktiv 129 / 124 40% 6 08.01.2027 -
Manu Morlanes Mallorca Aktiv 143 / 140 40% 4 31.12.2026 -
Tyrhys Dolan Espanyol Aktiv 143 / 137 40% 6 31.12.2026 -
Jens Petter Hauge Bodo/Glimt Aktiv 138 / 144 40% 6 30.12.2026 -
Jay Stansfield Birmingham Aktiv 131 / 129 40% 2 28.12.2026 -
Mathys Tel Tottenham Aktiv 138 / 149 40% 4 27.12.2026 -
Gedson Fernandes Spartak Moscow Aktiv 136 / 146 40% 4 26.12.2026 -
Danil Glebov Dinamo Moscow Aktiv 129 / 136 40% 3 26.12.2026 -
Aldair Faustino Levski Aktiv 117 / 118 40% 1 22.12.2026 -
Arne Maier Ujpest Aktiv 119 / 122 40% 1 21.12.2026 -
Harvey Vale Queens Park Rangers Aktiv 125 / 119 40% 1 17.12.2026 -
Nikita Krivtsov Krasnodar Aktiv 133 / 141 40% 1 17.12.2026 -
Alexandr Chernikov Krasnodar Aktiv 126 / 121 40% 2 16.12.2026 -
Maxim De Cuyper Brighton Aktiv 136 / 144 40% 3 15.12.2026 -
James Eto'o CSKA Sofia Aktiv 134 / 126 40% 1 09.12.2026 -
Oliver Arblaster Sheffield United Aktiv 129 / 125 40% 1 09.12.2026 -
Ammar Ramadan DAC Dunajska Streda Aktiv 136 / 110 40% 1 09.12.2026 -
Wilson Odobert Brighton Aktiv 145 / 136 40% 1 27.11.2026 -
Odin Bjørtuft Bodo/Glimt Aktiv 138 / 120 40% 1 03.11.2026 -
Diego Gómez Brighton Aktiv 141 / 151 40% 4 01.11.2026 -
Diego Luna Real Salt Lake Aktiv 124 / 122 40% 2 01.11.2026 -
Joaquín Pereyra Minnesota United FC Aktiv 127 / 127 40% 1 23.10.2026 -
Ole-Didrik Blomberg Bodo/Glimt Aktiv 135 / 118 40% 1 13.10.2026 -
Rubens Dinamo Moscow Aktiv 120 / 132 40% 1 10.10.2026 -
Andrés Herrera Columbus Crew Aktiv 129 / 119 40% 2 07.10.2026 -
Nicolás Romero Minnesota United FC Aktiv 126 / 138 40% 3 06.10.2026 -
Gonzalo Luján Inter Miami CF Verhandlung 124 / 115 40% 2 06.10.2026 -
Ho-yeon Jung Minnesota United FC Aktiv 128 / 116 40% 2 05.10.2026 -
Emil Breivik Molde Aktiv 136 / 135 40% 2 05.10.2026 -
Lukas Engel Real Salt Lake Aktiv 120 / 121 40% 2 25.09.2026 -
Rui Modesto Vancouver Whitecaps Aktiv 119 / 114 40% 2 25.09.2026 -
Cole Bassett Portland Timbers Aktiv 127 / 113 40% 2 19.09.2026 -
Tomáš Nemčík Rosenborg Aktiv 131 / 131 40% 1 19.09.2026 -
Iliya Gruev Leeds United Aktiv 124 / 129 40% 1 19.09.2026 -
Japhet Sery Larsen Philadelphia Union Aktiv 128 / 125 40% 1 18.09.2026 -
Juan Manuel Sanabria Real Salt Lake Aktiv 126 / 125 40% 2 17.09.2026 -
Juan Mosquera Portland Timbers Aktiv 121 / 132 40% 1 17.09.2026 -
Lucas Sanabria LA Galaxy Aktiv 123 / 132 40% 1 16.09.2026 -
Jordan Lotomba Bloemfontein Celtic Aktiv 113 / 124 40% 1 14.09.2026 -
Owen Beck Liverpool Aktiv 126 / 131 40% 1 14.09.2026 -
Nectar Triantis Minnesota United FC Aktiv 127 / 130 40% 1 13.09.2026 -
Alhassan Yusuf New England Revolution Aktiv 125 / 134 40% 1 12.09.2026 -